createdAt,value
2019-03-09T00:01:24.242Z,99758.94
2019-03-09T00:03:53.446Z,99751.05
2019-03-09T00:06:22.666Z,99747.55
2019-03-09T00:08:51.938Z,99744.03
2019-03-09T00:11:21.166Z,99762.45
2019-03-09T00:13:50.372Z,99735.28
2019-03-09T00:16:19.564Z,99731.77
2019-03-09T00:18:48.994Z,99720.38
2019-03-09T00:21:18.201Z,99723.86
2019-03-09T00:24:12.424Z,99719.92
2019-03-09T00:27:03.476Z,99715.09
2019-03-09T00:29:43.995Z,99731.31
2019-03-09T00:32:16.180Z,99703.21
2019-03-09T00:34:45.364Z,99691.38
2019-03-09T00:37:14.566Z,99691.86
2019-03-09T00:39:43.807Z,99678.66
2019-03-09T00:42:13.045Z,99682.15
2019-03-09T00:44:42.243Z,99680.39
2019-03-09T00:47:11.537Z,99668.55
2019-03-09T00:49:40.741Z,99657.58
2019-03-09T00:52:09.975Z,99653.19
2019-03-09T00:54:39.175Z,99651.88
2019-03-09T00:57:08.395Z,99645.73
2019-03-09T00:59:37.593Z,99644.44
2019-03-09T01:02:06.857Z,99649.27
2019-03-09T01:04:36.069Z,99633.50
2019-03-09T01:07:05.268Z,99638.33
2019-03-09T01:09:34.501Z,99636.16
2019-03-09T01:12:03.675Z,99628.71
2019-03-09T01:14:32.917Z,99629.14
2019-03-09T01:17:02.141Z,99607.72
2019-03-09T01:19:31.362Z,99600.30
2019-03-09T01:22:00.566Z,99597.23
2019-03-09T01:24:29.996Z,99588.91
2019-03-09T01:26:59.216Z,99568.77
2019-03-09T01:29:28.492Z,99569.23
2019-03-09T01:31:57.642Z,99556.53
2019-03-09T01:34:26.829Z,99549.06
2019-03-09T01:36:56.056Z,99554.78
2019-03-09T01:39:25.264Z,99538.15
2019-03-09T01:41:54.462Z,99525.88
2019-03-09T01:44:23.682Z,99515.79
2019-03-09T01:46:52.880Z,99508.79
2019-03-09T01:49:22.088Z,99501.83
2019-03-09T01:51:51.300Z,99500.54
2019-03-09T01:54:20.499Z,99497.89
2019-03-09T01:56:49.747Z,99488.27
2019-03-09T01:59:19.000Z,99492.59
2019-03-09T02:01:48.177Z,99484.33
2019-03-09T02:04:17.379Z,99475.99
2019-03-09T02:06:46.573Z,99472.95
2019-03-09T02:09:15.917Z,99469.88
2019-03-09T02:11:45.104Z,99459.41
2019-03-09T02:14:14.310Z,99465.11
2019-03-09T02:16:43.501Z,99469.06
2019-03-09T02:19:12.695Z,99457.75
2019-03-09T02:21:41.997Z,99450.70
2019-03-09T02:24:11.177Z,99445.06
2019-03-09T02:26:41.860Z,99447.71
2019-03-09T02:29:11.084Z,99419.71
2019-03-09T02:31:40.301Z,99427.17
2019-03-09T02:34:09.563Z,99426.75
2019-03-09T02:36:38.764Z,99411.44
2019-03-09T02:39:20.569Z,99410.56
2019-03-09T02:41:49.752Z,99398.32
2019-03-09T02:44:18.994Z,99399.69
2019-03-09T02:46:48.250Z,99406.69
2019-03-09T02:49:17.505Z,99402.31
2019-03-09T02:51:46.732Z,99397.00
2019-03-09T02:54:15.954Z,99398.32
2019-03-09T02:56:45.179Z,99390.87
2019-03-09T02:59:14.353Z,99391.72
2019-03-09T03:02:01.211Z,99385.60
2019-03-09T03:04:30.477Z,99389.95
2019-03-09T03:06:59.660Z,99365.46
2019-03-09T03:09:28.871Z,99365.86
2019-03-09T03:11:58.087Z,99366.77
2019-03-09T03:14:27.306Z,99358.92
2019-03-09T03:16:56.524Z,99355.92
2019-03-09T03:19:25.730Z,99351.96
2019-03-09T03:21:54.926Z,99347.61
2019-03-09T03:24:24.102Z,99353.34
2019-03-09T03:26:53.300Z,99338.87
2019-03-09T03:29:22.530Z,99303.62
2019-03-09T03:31:51.848Z,99333.19
2019-03-09T03:34:21.118Z,99333.64
2019-03-09T03:36:50.409Z,99339.30
2019-03-09T03:39:19.629Z,99327.05
2019-03-09T03:41:48.878Z,99336.70
2019-03-09T03:44:18.093Z,99332.34
2019-03-09T03:46:47.281Z,99323.17
2019-03-09T03:49:16.484Z,99328.88
2019-03-09T03:51:45.697Z,99331.13
2019-03-09T03:54:14.961Z,99327.19
2019-03-09T03:56:44.164Z,99317.14
2019-03-09T03:59:13.381Z,99304.90
2019-03-09T04:01:42.589Z,99323.29
2019-03-09T04:04:11.815Z,99307.11
2019-03-09T04:06:41.159Z,99313.64
2019-03-09T04:09:10.459Z,99317.16
2019-03-09T04:11:39.699Z,99325.50
2019-03-09T04:14:08.918Z,99307.13
2019-03-09T04:16:38.135Z,99317.60
2019-03-09T04:19:07.344Z,99302.75
2019-03-09T04:21:36.539Z,99292.70
2019-03-09T04:24:05.758Z,99314.11
2019-03-09T04:26:34.976Z,99312.33
2019-03-09T04:29:04.154Z,99288.32
2019-03-09T04:31:33.373Z,99279.58
2019-03-09T04:34:02.780Z,99293.59
2019-03-09T04:36:34.302Z,99285.27
2019-03-09T04:39:05.078Z,99281.75
2019-03-09T04:41:34.305Z,99274.31
2019-03-09T04:44:03.483Z,99267.31
2019-03-09T04:46:32.779Z,99275.19
2019-03-09T04:49:01.987Z,99286.58
2019-03-09T04:51:31.207Z,99280.88
2019-03-09T04:54:00.408Z,99293.08
2019-03-09T04:56:29.606Z,99293.06
2019-03-09T04:58:58.813Z,99293.52
2019-03-09T05:01:28.000Z,99288.25
2019-03-09T05:04:29.216Z,99290.00
2019-03-09T05:06:58.380Z,99294.37
2019-03-09T05:10:08.227Z,99312.66
2019-03-09T05:12:37.398Z,99288.11
2019-03-09T05:15:08.510Z,99281.54
2019-03-09T05:17:37.711Z,99279.35
2019-03-09T05:20:07.664Z,99281.11
2019-03-09T05:22:36.858Z,99275.39
2019-03-09T05:25:06.168Z,99285.03
2019-03-09T05:27:35.357Z,99284.14
2019-03-09T05:30:04.914Z,99278.44
2019-03-09T05:32:34.113Z,99281.44
2019-03-09T05:35:03.331Z,99298.47
2019-03-09T05:37:32.513Z,99311.60
2019-03-09T05:40:01.691Z,99311.58
2019-03-09T05:42:32.649Z,99308.51
2019-03-09T05:45:01.851Z,99319.84
2019-03-09T05:47:31.067Z,99308.45
2019-03-09T05:50:00.277Z,99320.71
2019-03-09T05:52:33.567Z,99321.95
2019-03-09T05:55:09.783Z,99331.57
2019-03-09T05:57:39.030Z,99328.50
2019-03-09T06:00:08.802Z,99334.19
2019-03-09T06:02:38.039Z,99341.61
2019-03-09T06:05:42.493Z,99358.24
2019-03-09T06:08:11.715Z,99359.95
2019-03-09T06:10:40.907Z,99359.53
2019-03-09T06:13:10.093Z,99377.02
2019-03-09T06:15:39.294Z,99375.27
2019-03-09T06:18:08.504Z,99347.68
2019-03-09T06:20:37.701Z,99362.05
2019-03-09T06:23:06.920Z,99362.11
2019-03-09T06:25:38.484Z,99348.11
2019-03-09T06:28:07.018Z,99349.88
2019-03-09T06:30:36.316Z,99363.00
2019-03-09T06:33:36.991Z,99362.55
2019-03-09T06:37:02.208Z,99367.31
2019-03-09T06:39:46.020Z,99370.67
2019-03-09T06:42:45.698Z,99368.80
2019-03-09T06:45:16.468Z,99380.55
2019-03-09T06:47:45.792Z,99385.43
2019-03-09T06:50:17.024Z,99390.68
2019-03-09T06:52:46.246Z,99391.26
2019-03-09T06:55:15.807Z,99390.71
2019-03-09T06:57:45.013Z,99400.50
2019-03-09T07:00:27.973Z,99396.97
2019-03-09T07:02:57.207Z,99401.47
2019-03-09T07:05:26.437Z,99406.70
2019-03-09T07:07:55.700Z,99414.31
2019-03-09T07:10:24.909Z,99433.60
2019-03-09T07:12:54.150Z,99416.17
2019-03-09T07:15:31.291Z,99421.81
2019-03-09T07:18:08.935Z,99438.04
2019-03-09T07:20:38.231Z,99446.14
2019-03-09T07:23:07.442Z,99450.17
2019-03-09T07:25:36.653Z,99448.38
2019-03-09T07:28:10.554Z,99464.98
2019-03-09T07:30:39.736Z,99461.91
2019-03-09T07:33:09.032Z,99473.72
2019-03-09T07:35:38.395Z,99476.85
2019-03-09T07:38:07.626Z,99478.00
2019-03-09T07:40:39.876Z,99480.36
2019-03-09T07:43:09.130Z,99488.03
2019-03-09T07:45:38.434Z,99496.09
2019-03-09T07:48:07.676Z,99495.69
2019-03-09T07:50:36.902Z,99483.90
2019-03-09T07:53:06.101Z,99495.75
2019-03-09T07:55:35.319Z,99498.34
2019-03-09T07:58:05.902Z,99502.21
2019-03-09T08:00:35.085Z,99487.21
2019-03-09T08:03:04.410Z,99499.56
2019-03-09T08:05:33.659Z,99484.72
2019-03-09T08:08:02.900Z,99482.51
2019-03-09T08:10:32.145Z,99484.66
2019-03-09T08:13:01.367Z,99502.16
2019-03-09T08:15:30.608Z,99491.59
2019-03-09T08:17:59.797Z,99493.14
2019-03-09T08:20:29.056Z,99496.37
2019-03-09T08:22:58.361Z,99506.98
2019-03-09T08:25:27.589Z,99518.92
2019-03-09T08:27:56.797Z,99431.31
2019-03-09T08:30:26.049Z,99500.88
2019-03-09T08:32:55.280Z,99508.59
2019-03-09T08:35:24.512Z,99506.95
2019-03-09T08:37:53.755Z,99506.91
2019-03-09T08:40:23.021Z,99507.13
2019-03-09T08:42:52.238Z,99506.83
2019-03-09T08:45:21.537Z,99525.45
2019-03-09T08:47:52.660Z,99521.87
2019-03-09T08:50:22.491Z,99526.07
2019-03-09T08:52:51.815Z,99515.63
2019-03-09T08:55:21.155Z,99517.95
2019-03-09T08:57:50.350Z,99511.76
2019-03-09T09:00:22.245Z,99524.50
2019-03-09T09:02:51.502Z,99536.14
2019-03-09T09:05:20.910Z,99539.77
2019-03-09T09:07:50.184Z,99546.50
2019-03-09T09:10:19.396Z,99547.08
2019-03-09T09:12:48.859Z,99559.94
2019-03-09T09:15:18.174Z,99553.47
2019-03-09T09:17:47.450Z,99556.71
2019-03-09T09:20:17.980Z,99562.03
2019-03-09T09:22:47.195Z,99563.23
2019-03-09T09:25:16.507Z,99543.03
2019-03-09T09:27:46.017Z,99547.86
2019-03-09T09:30:17.901Z,99557.13
2019-03-09T09:32:47.167Z,99555.51
2019-03-09T09:35:16.665Z,99559.13
2019-03-09T09:37:46.226Z,99565.41
2019-03-09T09:40:18.198Z,99561.53
2019-03-09T09:42:47.433Z,99567.33
2019-03-09T09:45:16.847Z,99557.67
2019-03-09T09:47:46.075Z,99555.02
2019-03-09T09:50:15.548Z,99567.30
2019-03-09T09:52:44.911Z,99553.23
2019-03-09T09:55:15.093Z,99545.32
2019-03-09T09:57:44.364Z,99542.66
2019-03-09T10:00:19.800Z,99541.62
2019-03-09T10:02:49.046Z,99531.03
2019-03-09T10:05:18.323Z,99541.06
2019-03-09T10:07:47.548Z,99537.52
2019-03-09T10:10:18.034Z,99533.56
2019-03-09T10:12:47.302Z,99537.41
2019-03-09T10:15:20.752Z,99531.27
2019-03-09T10:17:49.974Z,99527.73
2019-03-09T10:20:19.198Z,99543.98
2019-03-09T10:22:48.470Z,99537.35
2019-03-09T10:25:17.699Z,99536.95
2019-03-09T10:27:46.918Z,99532.20
2019-03-09T10:30:18.288Z,99526.38
2019-03-09T10:32:47.597Z,99521.43
2019-03-09T10:35:16.953Z,99523.80
2019-03-09T10:37:46.232Z,99534.87
2019-03-09T10:40:16.088Z,99520.43
2019-03-09T10:42:45.463Z,99523.56
2019-03-09T10:45:15.201Z,99512.87
2019-03-09T10:47:44.526Z,99521.92
2019-03-09T10:50:14.511Z,99536.82
2019-03-09T10:52:43.904Z,99522.73
2019-03-09T10:55:15.515Z,99533.34
2019-03-09T10:57:45.216Z,99528.53
2019-03-09T11:00:19.961Z,99532.44
2019-03-09T11:02:48.239Z,99530.16
2019-03-09T11:05:17.526Z,99550.42
2019-03-09T11:07:46.775Z,99525.77
2019-03-09T11:10:16.014Z,99527.48
2019-03-09T11:12:45.263Z,99521.69
2019-03-09T11:15:14.476Z,99519.14
2019-03-09T11:17:43.728Z,99511.99
2019-03-09T11:20:13.938Z,99513.70
2019-03-09T11:22:43.149Z,99517.12
2019-03-09T11:25:12.654Z,99507.78
2019-03-09T11:27:41.881Z,99512.11
2019-03-09T11:30:32.941Z,99506.31
2019-03-09T11:33:02.160Z,99513.79
2019-03-09T11:35:32.880Z,99503.45
2019-03-09T11:38:02.387Z,99495.48
2019-03-09T11:40:31.735Z,99502.36
2019-03-09T11:43:00.970Z,99492.48
2019-03-09T11:45:30.214Z,99492.38
2019-03-09T11:47:59.461Z,99487.45
2019-03-09T11:50:28.651Z,99479.80
2019-03-09T11:52:57.885Z,99485.23
2019-03-09T11:55:29.321Z,99487.70
2019-03-09T11:57:58.780Z,99488.36
2019-03-09T12:00:30.641Z,99473.33
2019-03-09T12:02:59.857Z,99480.14
2019-03-09T12:05:29.108Z,99473.14
2019-03-09T12:07:58.361Z,99445.05
2019-03-09T12:10:27.592Z,99470.54
2019-03-09T12:12:56.839Z,99458.05
2019-03-09T12:15:26.217Z,99440.67
2019-03-09T12:17:55.475Z,99442.47
2019-03-09T12:20:27.382Z,99422.52
2019-03-09T12:23:01.186Z,99430.14
2019-03-09T12:25:27.593Z,99426.95
2019-03-09T12:27:56.820Z,99407.23
2019-03-09T12:30:26.074Z,99404.80
2019-03-09T12:32:55.410Z,99398.27
2019-03-09T12:35:24.628Z,99386.65
2019-03-09T12:37:53.862Z,99379.75
2019-03-09T12:40:23.097Z,99380.98
2019-03-09T12:42:52.358Z,99365.58
2019-03-09T12:45:21.586Z,99364.20
2019-03-09T12:47:50.808Z,99362.56
2019-03-09T12:50:20.201Z,99359.50
2019-03-09T12:52:49.428Z,99355.04
2019-03-09T12:55:18.864Z,99329.89
2019-03-09T12:57:48.133Z,99323.06
2019-03-09T13:00:18.426Z,99329.80
2019-03-09T13:02:47.693Z,99316.99
2019-03-09T13:05:17.689Z,99343.06
2019-03-09T13:07:47.063Z,99322.12
2019-03-09T13:10:16.862Z,99315.02
2019-03-09T13:12:46.295Z,99313.13
2019-03-09T13:15:16.449Z,99306.02
2019-03-09T13:17:45.689Z,99293.26
2019-03-09T13:20:15.191Z,99295.75
2019-03-09T13:22:44.425Z,99283.70
2019-03-09T13:25:13.995Z,99286.86
2019-03-09T13:27:43.692Z,99280.38
2019-03-09T13:30:18.066Z,99274.62
2019-03-09T13:32:47.355Z,99268.13
2019-03-09T13:35:16.585Z,99262.61
2019-03-09T13:37:46.011Z,99254.52
2019-03-09T13:40:16.116Z,99252.69
2019-03-09T13:42:45.542Z,99254.30
2019-03-09T13:45:14.908Z,99238.85
2019-03-09T13:47:44.160Z,99241.55
2019-03-09T13:50:13.620Z,99267.44
2019-03-09T13:52:42.858Z,99258.30
2019-03-09T13:55:12.601Z,99223.08
2019-03-09T13:57:42.125Z,99210.02
2019-03-09T14:00:13.376Z,99208.83
2019-03-09T14:02:42.657Z,99199.20
2019-03-09T14:05:11.888Z,99192.83
2019-03-09T14:07:41.180Z,99194.06
2019-03-09T14:10:11.415Z,99201.30
2019-03-09T14:12:40.833Z,99188.32
2019-03-09T14:15:12.163Z,99184.37
2019-03-09T14:17:41.365Z,99168.00
2019-03-09T14:20:11.114Z,99152.34
2019-03-09T14:22:40.420Z,99138.20
2019-03-09T14:25:10.125Z,99123.97
2019-03-09T14:27:39.403Z,99113.48
2019-03-09T14:30:10.863Z,99115.67
2019-03-09T14:32:41.677Z,99110.38
2019-03-09T14:35:11.213Z,99101.58
2019-03-09T14:37:40.536Z,99086.25
2019-03-09T14:40:10.916Z,99085.10
2019-03-09T14:42:40.307Z,99083.08
2019-03-09T14:45:13.308Z,99066.56
2019-03-09T14:47:42.551Z,99090.72
2019-03-09T14:50:11.925Z,99077.66
2019-03-09T14:52:41.236Z,99085.47
2019-03-09T14:55:11.066Z,99137.75
2019-03-09T14:57:40.363Z,99116.50
2019-03-09T15:00:13.000Z,99124.40
2019-03-09T15:02:42.512Z,99152.59
2019-03-09T15:05:11.815Z,99182.45
2019-03-09T15:07:41.074Z,99182.73
2019-03-09T15:10:10.846Z,99205.88
2019-03-09T15:12:40.094Z,99168.25
2019-03-09T15:15:10.456Z,99146.41
2019-03-09T15:17:39.856Z,99142.36
2019-03-09T15:20:10.155Z,99123.50
2019-03-09T15:22:39.442Z,99104.69
2019-03-09T15:25:09.672Z,99114.41
2019-03-09T15:27:38.898Z,99128.69
2019-03-09T15:30:13.198Z,99121.70
2019-03-09T15:32:42.959Z,99116.84
2019-03-09T15:35:12.434Z,99119.09
2019-03-09T15:37:41.672Z,99115.66
2019-03-09T15:40:11.474Z,99112.60
2019-03-09T15:42:40.786Z,99108.55
2019-03-09T15:45:10.996Z,99102.41
2019-03-09T15:47:40.278Z,99103.08
2019-03-09T15:50:10.622Z,99095.95
2019-03-09T15:52:39.897Z,99076.23
2019-03-09T15:55:09.409Z,99073.59
2019-03-09T15:57:38.682Z,99060.44
2019-03-09T16:00:11.555Z,99052.12
2019-03-09T16:02:40.822Z,99049.06
2019-03-09T16:05:10.233Z,99063.63
2019-03-09T16:07:39.445Z,99054.91
2019-03-09T16:10:10.079Z,99066.39
2019-03-09T16:12:40.212Z,99063.91
2019-03-09T16:15:10.438Z,99053.88
2019-03-09T16:17:39.692Z,99049.93
2019-03-09T16:20:11.346Z,99051.76
2019-03-09T16:22:43.501Z,99105.80
2019-03-09T16:25:12.797Z,99155.09
2019-03-09T16:27:42.072Z,99121.70
2019-03-09T16:30:14.135Z,99144.58
2019-03-09T16:32:43.408Z,99156.34
2019-03-09T16:35:12.754Z,99169.59
2019-03-09T16:37:42.951Z,99189.89
2019-03-09T16:40:12.544Z,99223.81
2019-03-09T16:42:41.774Z,99264.72
2019-03-09T16:45:11.736Z,99253.00
2019-03-09T16:47:40.981Z,99295.73
2019-03-09T16:50:10.871Z,99262.05
2019-03-09T16:52:40.171Z,99252.44
2019-03-09T16:55:09.690Z,99238.95
2019-03-09T16:57:38.957Z,99231.87
2019-03-09T17:00:11.214Z,99242.03
2019-03-09T17:02:40.426Z,99245.60
2019-03-09T17:05:09.675Z,99238.67
2019-03-09T17:07:38.948Z,99236.95
2019-03-09T17:10:08.639Z,99251.93
2019-03-09T17:12:37.961Z,99265.97
2019-03-09T17:15:08.043Z,99271.31
2019-03-09T17:17:37.313Z,99280.56
2019-03-09T17:20:07.841Z,99309.12
2019-03-09T17:22:37.067Z,99324.44
2019-03-09T17:25:07.167Z,99327.88
2019-03-09T17:27:36.532Z,99351.92
2019-03-09T17:30:06.752Z,99351.63
2019-03-09T17:32:36.136Z,99352.38
2019-03-09T17:35:05.435Z,99363.36
2019-03-09T17:37:34.883Z,99380.53
2019-03-09T17:40:04.807Z,99386.19
2019-03-09T17:42:34.382Z,99369.13
2019-03-09T17:45:05.075Z,99402.41
2019-03-09T17:47:36.133Z,99403.66
2019-03-09T17:50:05.764Z,99421.16
2019-03-09T17:52:34.970Z,99422.05
2019-03-09T17:55:04.616Z,99432.09
2019-03-09T17:57:33.839Z,99440.02
2019-03-09T18:00:03.148Z,99462.33
2019-03-09T18:02:32.470Z,99466.27
2019-03-09T18:05:01.703Z,99483.80
2019-03-09T18:07:31.082Z,99481.61
2019-03-09T18:10:00.397Z,99509.62
2019-03-09T18:12:29.578Z,99513.59
2019-03-09T18:14:58.895Z,99520.23
2019-03-09T18:17:28.113Z,99525.49
2019-03-09T18:20:04.794Z,99531.66
2019-03-09T18:22:34.026Z,99549.60
2019-03-09T18:25:03.382Z,99542.14
2019-03-09T18:27:32.644Z,99558.80
2019-03-09T18:30:01.858Z,99574.14
2019-03-09T18:32:31.116Z,99589.45
2019-03-09T18:35:00.359Z,99614.87
2019-03-09T18:37:29.801Z,99619.70
2019-03-09T18:39:59.015Z,99619.27
2019-03-09T18:42:28.290Z,99624.95
2019-03-09T18:44:57.548Z,99651.66
2019-03-09T18:47:26.825Z,99661.74
2019-03-09T18:49:56.023Z,99656.49
2019-03-09T18:52:25.268Z,99666.06
2019-03-09T18:54:54.499Z,99681.84
2019-03-09T18:57:23.708Z,99678.33
2019-03-09T18:59:52.977Z,99685.39
2019-03-09T19:02:22.225Z,99693.72
2019-03-09T19:04:51.568Z,99702.06
2019-03-09T19:07:20.849Z,99709.95
2019-03-09T19:09:50.107Z,99730.08
2019-03-09T19:12:19.481Z,99732.29
2019-03-09T19:14:49.628Z,99739.34
2019-03-09T19:17:19.156Z,99749.41
2019-03-09T19:19:48.400Z,99761.24
2019-03-09T19:22:17.854Z,99763.86
2019-03-09T19:24:47.355Z,99764.30
2019-03-09T19:27:16.695Z,99769.12
2019-03-09T19:29:46.108Z,99767.41
2019-03-09T19:32:15.518Z,99772.22
2019-03-09T19:34:44.737Z,99782.29
2019-03-09T19:37:14.043Z,99790.17
2019-03-09T19:39:43.278Z,99802.42
2019-03-09T19:42:12.847Z,99804.61
2019-03-09T19:44:42.124Z,99804.16
2019-03-09T19:47:12.163Z,99816.88
2019-03-09T19:49:41.610Z,99815.99
2019-03-09T19:52:10.890Z,99808.13
2019-03-09T19:54:40.516Z,99805.04
2019-03-09T19:57:09.867Z,99822.54
2019-03-09T19:59:39.776Z,99816.88
2019-03-09T20:02:09.146Z,99823.85
2019-03-09T20:04:38.817Z,99828.69
2019-03-09T20:07:08.087Z,99837.42
2019-03-09T20:09:37.422Z,99845.72
2019-03-09T20:12:06.636Z,99845.72
2019-03-09T20:14:35.828Z,99840.01
2019-03-09T20:17:05.156Z,99848.34
2019-03-09T20:19:34.522Z,99852.27
2019-03-09T20:22:04.011Z,99856.22
2019-03-09T20:24:33.254Z,99870.19
2019-03-09T20:27:02.738Z,99880.69
2019-03-09T20:29:32.194Z,99881.56
2019-03-09T20:32:01.490Z,99876.72
2019-03-09T20:34:30.795Z,99884.14
2019-03-09T20:37:00.040Z,99887.63
2019-03-09T20:39:29.417Z,99892.41
2019-03-09T20:41:58.647Z,99888.89
2019-03-09T20:44:28.072Z,99900.25
2019-03-09T20:46:57.446Z,99898.50
2019-03-09T20:49:26.745Z,99901.59
2019-03-09T20:51:56.033Z,99894.57
2019-03-09T20:54:25.273Z,99891.06
2019-03-09T20:56:54.595Z,99899.36
2019-03-09T20:59:24.034Z,99903.30
2019-03-09T21:01:53.465Z,99903.75
2019-03-09T21:04:23.003Z,99902.85
2019-03-09T21:06:52.293Z,99905.02
2019-03-09T21:09:21.548Z,99911.58
2019-03-09T21:11:51.029Z,99906.75
2019-03-09T21:14:20.284Z,99913.27
2019-03-09T21:16:49.754Z,99916.34
2019-03-09T21:19:18.941Z,99916.34
2019-03-09T21:21:48.200Z,99915.01
2019-03-09T21:24:17.719Z,99918.05
2019-03-09T21:26:46.986Z,99923.34
2019-03-09T21:29:16.224Z,99923.75
2019-03-09T21:31:45.540Z,99928.54
2019-03-09T21:34:14.962Z,99935.54
2019-03-09T21:36:44.214Z,99931.57
2019-03-09T21:39:13.469Z,99932.91
2019-03-09T21:41:42.864Z,99943.41
2019-03-09T21:44:12.103Z,99940.80
2019-03-09T21:46:41.305Z,99935.07
2019-03-09T21:49:11.164Z,99937.23
2019-03-09T21:51:40.505Z,99937.17
2019-03-09T21:54:09.977Z,99934.98
2019-03-09T21:56:39.272Z,99926.68
2019-03-09T21:59:08.732Z,99916.63
2019-03-09T22:01:37.953Z,99918.36
2019-03-09T22:04:07.193Z,99933.73
2019-03-09T22:06:36.537Z,99930.63
2019-03-09T22:09:07.125Z,99927.11
2019-03-09T22:11:36.339Z,99919.70
2019-03-09T22:14:05.564Z,99932.78
2019-03-09T22:16:34.831Z,99923.60
2019-03-09T22:19:04.027Z,99928.39
2019-03-09T22:21:33.272Z,99927.51
2019-03-09T22:24:02.572Z,99923.58
2019-03-09T22:26:31.778Z,99928.39
2019-03-09T22:29:01.224Z,99928.92
2019-03-09T22:31:30.415Z,99925.87
2019-03-09T22:33:59.702Z,99930.68
2019-03-09T22:36:28.956Z,99933.77
2019-03-09T22:38:58.168Z,99935.50
2019-03-09T22:41:27.444Z,99933.34
2019-03-09T22:43:56.721Z,99932.91
2019-03-09T22:46:25.938Z,99942.53
2019-03-09T22:48:55.151Z,99951.69
2019-03-09T22:51:24.368Z,99941.23
2019-03-09T22:53:53.590Z,99941.67
2019-03-09T22:56:22.796Z,99932.09
2019-03-09T22:58:51.995Z,99933.00
2019-03-09T23:01:21.825Z,99927.34
2019-03-09T23:03:51.037Z,99926.91
2019-03-09T23:06:20.402Z,99913.39
2019-03-09T23:08:49.702Z,99903.77
2019-03-09T23:11:19.005Z,99899.86
2019-03-09T23:13:48.252Z,99900.76
2019-03-09T23:16:20.353Z,99908.17
2019-03-09T23:18:49.562Z,99898.11
2019-03-09T23:21:18.812Z,99900.30
2019-03-09T23:23:48.058Z,99894.61
2019-03-09T23:26:17.361Z,99905.10
2019-03-09T23:28:48.470Z,99896.36
2019-03-09T23:31:17.770Z,99896.36
2019-03-09T23:33:46.962Z,99905.56
2019-03-09T23:36:16.207Z,99894.19
2019-03-09T23:38:45.436Z,99907.33
2019-03-09T23:41:14.657Z,99908.17
2019-03-09T23:43:43.849Z,99914.75
2019-03-09T23:46:13.072Z,99913.45
2019-03-09T23:48:42.308Z,99915.20
2019-03-09T23:51:11.549Z,99909.96
2019-03-09T23:53:40.852Z,99916.52
2019-03-09T23:56:10.074Z,99912.16
2019-03-09T23:58:39.310Z,99909.53
